Time;durP1;ratioP1;P1;durP2;ratioP2;P2;SDS_P1;SDS_P2;PMS_P1;PMS_P2;Temp;Humidity;BMP_temperature;BMP_pressure;BME280_temperature;BME280_humidity;BME280_pressure;Samples;Min_cycle;Max_cycle;Signal;HPM_P1;HPM_P2
2023/06/15 00:00:56;;;;;;;5.03;3.38;;;;;;;;;;5052978;27;98288;-75
2023/06/15 00:03:23;;;;;;;5.80;2.72;;;;;;;;;;5062654;27;98771;-75
2023/06/15 00:05:51;;;;;;;4.38;2.72;;;;;;;;;;5056852;27;99851;-75
2023/06/15 00:08:18;;;;;;;4.32;3.20;;;;;;;;;;5072836;27;98180;-74
2023/06/15 00:10:45;;;;;;;3.83;3.15;;;;;;;;;;5072464;27;99537;-75
2023/06/15 00:13:11;;;;;;;12.02;3.38;;;;;;;;;;5071213;27;100076;-76
2023/06/15 00:15:39;;;;;;;8.10;3.25;;;;;;;;;;5072545;27;98239;-74
2023/06/15 00:18:05;;;;;;;5.20;3.53;;;;;;;;;;5080722;27;99389;-74
2023/06/15 00:20:32;;;;;;;4.28;2.95;;;;;;;;;;5092742;27;98185;-75
2023/06/15 00:22:59;;;;;;;5.60;3.17;;;;;;;;;;5090649;27;99778;-75
2023/06/15 00:25:25;;;;;;;5.53;3.00;;;;;;;;;;5090881;27;100398;-76
2023/06/15 00:27:51;;;;;;;6.50;3.63;;;;;;;;;;5092683;27;98263;-76
2023/06/15 00:30:19;;;;;;;3.83;2.92;;;;;;;;;;5073984;27;99515;-76
2023/06/15 00:32:46;;;;;;;5.93;3.10;;;;;;;;;;5091783;27;100072;-76
2023/06/15 00:35:12;;;;;;;6.07;3.35;;;;;;;;;;5092401;27;98255;-76
2023/06/15 00:37:39;;;;;;;3.53;3.17;;;;;;;;;;5074413;27;99238;-76
2023/06/15 00:40:06;;;;;;;4.75;3.03;;;;;;;;;;5094840;27;98880;-76
2023/06/15 00:42:33;;;;;;;4.93;3.25;;;;;;;;;;5091946;27;98404;-75
2023/06/15 00:44:59;;;;;;;10.13;3.28;;;;;;;;;;5092075;27;99300;-76
2023/06/15 00:47:26;;;;;;;5.55;3.03;;;;;;;;;;5087565;27;98268;-76
2023/06/15 00:49:52;;;;;;;4.13;3.28;;;;;;;;;;5053560;27;100003;-76
2023/06/15 00:52:22;;;;;;;3.97;3.40;;;;;;;;;;5082297;27;99158;-76
2023/06/15 00:54:49;;;;;;;13.18;3.08;;;;;;;;;;5068260;27;98333;-76
2023/06/15 00:57:17;;;;;;;6.70;3.60;;;;;;;;;;5092334;27;99400;-76
2023/06/15 00:59:44;;;;;;;6.95;3.42;;;;;;;;;;5091637;27;98850;-76
2023/06/15 01:02:12;;;;;;;4.28;3.15;;;;;;;;;;5094906;27;98191;-76
2023/06/15 01:04:39;;;;;;;4.70;2.92;;;;;;;;;;5056756;27;99960;-76
2023/06/15 01:07:10;;;;;;;18.38;5.03;;;;;;;;;;5072549;27;98449;-76
2023/06/15 01:09:38;;;;;;;4.25;3.42;;;;;;;;;;5091631;27;99696;-76
2023/06/15 01:12:07;;;;;;;6.32;3.42;;;;;;;;;;5091974;27;99457;-76
2023/06/15 01:14:34;;;;;;;6.55;3.22;;;;;;;;;;5072080;27;98359;-76
2023/06/15 01:17:02;;;;;;;4.45;3.17;;;;;;;;;;5070412;27;99689;-75
2023/06/15 01:19:38;;;;;;;5.07;3.25;;;;;;;;;;5073393;27;98727;-74
2023/06/15 01:22:24;;;;;;;5.50;3.25;;;;;;;;;;5070799;27;98010;-75
2023/06/15 01:25:00;;;;;;;9.57;3.95;;;;;;;;;;5055875;27;100028;-77
2023/06/15 01:27:26;;;;;;;6.80;3.33;;;;;;;;;;5072090;27;97960;-75
2023/06/15 01:29:54;;;;;;;8.30;3.53;;;;;;;;;;5087993;27;99655;-75
2023/06/15 01:32:20;;;;;;;3.40;3.20;;;;;;;;;;5065837;27;99458;-75
2023/06/15 01:34:49;;;;;;;4.65;3.28;;;;;;;;;;5071473;27;98168;-75
2023/06/15 01:37:15;;;;;;;5.45;3.80;;;;;;;;;;5051963;27;99680;-75
2023/06/15 01:39:42;;;;;;;6.88;3.70;;;;;;;;;;5071088;27;98640;-75
2023/06/15 01:42:10;;;;;;;4.60;3.40;;;;;;;;;;5071074;27;98191;-75
2023/06/15 01:44:38;;;;;;;9.30;4.25;;;;;;;;;;5051849;27;98939;-75
2023/06/15 01:47:06;;;;;;;3.92;3.58;;;;;;;;;;5055012;27;98371;-75
2023/06/15 01:49:33;;;;;;;9.02;4.35;;;;;;;;;;5079049;27;98279;-76
2023/06/15 01:52:00;;;;;;;5.65;3.50;;;;;;;;;;5072998;27;99100;-76
2023/06/15 01:54:27;;;;;;;5.80;3.75;;;;;;;;;;5091813;27;98201;-76
2023/06/15 01:56:54;;;;;;;5.93;3.55;;;;;;;;;;5056883;27;99610;-74
2023/06/15 01:59:20;;;;;;;5.80;3.20;;;;;;;;;;5051786;27;99251;-75
2023/06/15 02:01:47;;;;;;;6.15;3.63;;;;;;;;;;5052049;27;98250;-75
2023/06/15 02:04:13;;;;;;;6.68;3.60;;;;;;;;;;5051457;27;101062;-77
2023/06/15 02:06:40;;;;;;;4.55;3.42;;;;;;;;;;5074021;27;100175;-77
2023/06/15 02:09:06;;;;;;;14.07;3.70;;;;;;;;;;5070676;27;98576;-76
2023/06/15 02:11:35;;;;;;;7.43;3.67;;;;;;;;;;5051739;27;101763;-77
2023/06/15 02:14:01;;;;;;;4.20;3.80;;;;;;;;;;5053492;27;98915;-77
2023/06/15 02:16:28;;;;;;;5.07;4.20;;;;;;;;;;5056294;27;101062;-77
2023/06/15 02:18:54;;;;;;;8.82;4.63;;;;;;;;;;5090123;27;100374;-76
2023/06/15 02:21:21;;;;;;;4.90;3.90;;;;;;;;;;5095102;27;98162;-76
2023/06/15 02:23:48;;;;;;;5.18;3.83;;;;;;;;;;5092990;27;98478;-77
2023/06/15 02:26:15;;;;;;;8.30;3.63;;;;;;;;;;5075326;27;100047;-76
2023/06/15 02:28:41;;;;;;;3.95;3.53;;;;;;;;;;5079625;27;98453;-76
2023/06/15 02:31:08;;;;;;;4.85;4.05;;;;;;;;;;5094183;27;98743;-77
2023/06/15 02:33:34;;;;;;;6.43;3.92;;;;;;;;;;5094057;27;98259;-76
2023/06/15 02:36:02;;;;;;;7.90;3.90;;;;;;;;;;5075563;27;100574;-76
2023/06/15 02:38:28;;;;;;;10.82;4.00;;;;;;;;;;5094412;27;98979;-77
2023/06/15 02:40:55;;;;;;;17.65;4.45;;;;;;;;;;5074641;27;98362;-77
2023/06/15 02:43:21;;;;;;;5.40;3.60;;;;;;;;;;5075802;27;101053;-77
2023/06/15 02:45:49;;;;;;;7.70;4.10;;;;;;;;;;5091642;27;98730;-77
2023/06/15 02:48:17;;;;;;;9.80;4.10;;;;;;;;;;5059977;27;98219;-77
2023/06/15 02:50:43;;;;;;;6.05;3.95;;;;;;;;;;5058078;27;98831;-77
2023/06/15 02:53:16;;;;;;;7.68;3.80;;;;;;;;;;5054588;27;98245;-77
2023/06/15 02:55:43;;;;;;;4.22;3.90;;;;;;;;;;5055617;27;100599;-77
2023/06/15 02:58:13;;;;;;;6.30;3.50;;;;;;;;;;5055169;27;101432;-77
2023/06/15 03:00:56;;;;;;;4.70;4.03;;;;;;;;;;5072413;27;98581;-77
2023/06/15 03:03:30;;;;;;;11.40;4.00;;;;;;;;;;5055405;27;98521;-76
2023/06/15 03:05:59;;;;;;;4.60;4.07;;;;;;;;;;5055144;27;100151;-77
2023/06/15 03:08:31;;;;;;;9.70;4.38;;;;;;;;;;5055629;27;98214;-77
2023/06/15 03:11:10;;;;;;;4.90;4.25;;;;;;;;;;5055502;27;99659;-76
2023/06/15 03:13:38;;;;;;;3.90;3.60;;;;;;;;;;5058611;27;99950;-77
2023/06/15 03:16:07;;;;;;;6.47;4.00;;;;;;;;;;5054386;27;101549;-76
2023/06/15 03:18:34;;;;;;;5.88;4.10;;;;;;;;;;5054383;27;101442;-76
2023/06/15 03:21:01;;;;;;;4.10;3.80;;;;;;;;;;5053980;27;98505;-76
2023/06/15 03:23:28;;;;;;;4.63;4.13;;;;;;;;;;5055072;27;100679;-77
2023/06/15 03:25:55;;;;;;;4.30;3.90;;;;;;;;;;5054455;27;101014;-77
2023/06/15 03:28:24;;;;;;;4.60;4.10;;;;;;;;;;5059683;27;98303;-78
2023/06/15 03:30:53;;;;;;;6.85;3.95;;;;;;;;;;5072824;27;100868;-78
2023/06/15 03:33:21;;;;;;;7.60;4.35;;;;;;;;;;5073006;27;99994;-76
2023/06/15 03:35:48;;;;;;;6.88;4.90;;;;;;;;;;5075845;27;98178;-76
2023/06/15 03:38:16;;;;;;;4.65;4.25;;;;;;;;;;5054288;27;98901;-76
2023/06/15 03:40:43;;;;;;;6.35;4.57;;;;;;;;;;5055442;27;98282;-76
2023/06/15 03:43:11;;;;;;;10.15;4.00;;;;;;;;;;5053930;27;101590;-78
2023/06/15 03:45:39;;;;;;;9.63;4.35;;;;;;;;;;5054863;27;100986;-76
2023/06/15 03:48:06;;;;;;;7.80;3.97;;;;;;;;;;5059181;27;98763;-76
2023/06/15 03:50:33;;;;;;;4.00;3.67;;;;;;;;;;5053992;27;101393;-75
2023/06/15 03:53:01;;;;;;;5.43;4.35;;;;;;;;;;5053661;27;101712;-76
2023/06/15 03:55:27;;;;;;;7.82;4.10;;;;;;;;;;5057602;27;98433;-78
2023/06/15 03:57:54;;;;;;;8.90;4.18;;;;;;;;;;5070392;27;98854;-76
2023/06/15 04:00:20;;;;;;;7.15;4.38;;;;;;;;;;5073042;27;98046;-78
2023/06/15 04:02:50;;;;;;;6.88;4.97;;;;;;;;;;5054112;27;98548;-77
2023/06/15 04:05:19;;;;;;;9.55;4.55;;;;;;;;;;5059041;27;99057;-76
2023/06/15 04:07:45;;;;;;;9.68;4.95;;;;;;;;;;5074653;27;98296;-76
2023/06/15 04:10:12;;;;;;;14.13;4.60;;;;;;;;;;5073936;27;101023;-77
2023/06/15 04:12:39;;;;;;;5.57;4.40;;;;;;;;;;5073999;27;101430;-76
2023/06/15 04:15:06;;;;;;;4.43;4.00;;;;;;;;;;5074604;27;97986;-76
2023/06/15 04:17:35;;;;;;;8.02;4.50;;;;;;;;;;5076366;27;101338;-77
2023/06/15 04:20:04;;;;;;;4.93;4.63;;;;;;;;;;5084191;27;98180;-76
2023/06/15 04:22:31;;;;;;;12.63;4.38;;;;;;;;;;5062832;27;100898;-77
2023/06/15 04:24:58;;;;;;;8.07;4.43;;;;;;;;;;5091842;27;98765;-76
2023/06/15 04:27:27;;;;;;;7.97;4.90;;;;;;;;;;5074023;27;98185;-76
2023/06/15 04:29:54;;;;;;;9.05;4.72;;;;;;;;;;5074213;27;99627;-77
2023/06/15 04:32:25;;;;;;;6.93;4.95;;;;;;;;;;5072748;27;100964;-76
2023/06/15 04:34:52;;;;;;;7.03;4.43;;;;;;;;;;5092843;27;98568;-77
2023/06/15 04:37:19;;;;;;;10.68;4.65;;;;;;;;;;5073360;27;100637;-77
2023/06/15 04:39:47;;;;;;;9.30;4.07;;;;;;;;;;5075745;27;101461;-77
2023/06/15 04:42:13;;;;;;;5.60;4.72;;;;;;;;;;5073439;27;100673;-77
2023/06/15 04:44:41;;;;;;;5.35;4.75;;;;;;;;;;5073967;27;98904;-77
2023/06/15 04:47:07;;;;;;;6.05;4.50;;;;;;;;;;5061039;27;98175;-76
2023/06/15 04:49:34;;;;;;;6.28;4.40;;;;;;;;;;5054214;27;99375;-74
2023/06/15 04:52:02;;;;;;;10.02;4.10;;;;;;;;;;5071875;27;98796;-73
2023/06/15 04:54:30;;;;;;;5.75;5.15;;;;;;;;;;5052829;27;98336;-73
2023/06/15 04:56:58;;;;;;;8.18;4.25;;;;;;;;;;5053976;27;100287;-74
2023/06/15 04:59:25;;;;;;;4.60;4.20;;;;;;;;;;5053044;27;98875;-74
2023/06/15 05:01:51;;;;;;;11.52;5.35;;;;;;;;;;5075122;27;98191;-76
2023/06/15 05:04:24;;;;;;;10.57;4.80;;;;;;;;;;5053447;27;102209;-76
2023/06/15 05:06:50;;;;;;;7.82;5.32;;;;;;;;;;5058609;27;98338;-77
2023/06/15 05:09:19;;;;;;;8.90;4.88;;;;;;;;;;5064652;27;98483;-75
2023/06/15 05:11:47;;;;;;;9.80;5.13;;;;;;;;;;5064277;27;98932;-75
2023/06/15 05:14:14;;;;;;;5.15;4.70;;;;;;;;;;5078132;27;98302;-75
2023/06/15 05:16:40;;;;;;;6.05;4.65;;;;;;;;;;5054223;27;99671;-75
2023/06/15 05:19:07;;;;;;;5.97;4.18;;;;;;;;;;5052602;27;100770;-75
2023/06/15 05:21:34;;;;;;;14.32;4.90;;;;;;;;;;5070952;27;98215;-75
2023/06/15 05:24:02;;;;;;;9.65;4.80;;;;;;;;;;5056039;27;98060;-75
2023/06/15 05:26:28;;;;;;;7.82;4.70;;;;;;;;;;5071561;27;98203;-75
2023/06/15 05:29:04;;;;;;;6.43;4.65;;;;;;;;;;5056728;27;99401;-74
2023/06/15 05:31:30;;;;;;;14.20;5.40;;;;;;;;;;5072580;27;101281;-74
2023/06/15 05:33:58;;;;;;;8.57;4.55;;;;;;;;;;5073383;27;98286;-77
2023/06/15 05:36:30;;;;;;;9.95;5.13;;;;;;;;;;5072477;27;100606;-75
2023/06/15 05:39:18;;;;;;;6.63;4.70;;;;;;;;;;5072736;27;99026;-74
2023/06/15 05:41:45;;;;;;;5.05;4.65;;;;;;;;;;5072509;27;98220;-76
2023/06/15 05:44:11;;;;;;;10.88;4.68;;;;;;;;;;5073358;27;101311;-76
2023/06/15 05:46:42;;;;;;;12.70;4.50;;;;;;;;;;5066384;27;101669;-75
2023/06/15 05:49:08;;;;;;;13.75;4.70;;;;;;;;;;5053604;27;100304;-76
2023/06/15 05:51:35;;;;;;;6.18;3.90;;;;;;;;;;5056151;27;101665;-75
2023/06/15 05:54:02;;;;;;;8.63;4.00;;;;;;;;;;5055771;27;98278;-78
2023/06/15 05:56:30;;;;;;;8.20;4.45;;;;;;;;;;5082432;27;98533;-76
2023/06/15 05:58:56;;;;;;;12.45;4.63;;;;;;;;;;5068402;27;98961;-76
2023/06/15 06:01:22;;;;;;;9.95;4.10;;;;;;;;;;5086772;27;98287;-76
2023/06/15 06:03:50;;;;;;;6.88;4.05;;;;;;;;;;5075949;27;100723;-76
2023/06/15 06:06:17;;;;;;;11.38;4.80;;;;;;;;;;5097482;27;98697;-77
2023/06/15 06:08:43;;;;;;;7.60;4.28;;;;;;;;;;5080755;27;99927;-76
2023/06/15 06:11:10;;;;;;;9.70;3.83;;;;;;;;;;5080431;27;98857;-77
2023/06/15 06:13:39;;;;;;;10.60;4.32;;;;;;;;;;5072749;27;98297;-74
2023/06/15 06:16:06;;;;;;;12.25;4.38;;;;;;;;;;5076348;27;100970;-74
2023/06/15 06:18:32;;;;;;;9.75;4.30;;;;;;;;;;5075943;27;98732;-75
2023/06/15 06:20:59;;;;;;;7.72;4.30;;;;;;;;;;5075494;27;98280;-75
2023/06/15 06:23:26;;;;;;;9.70;4.43;;;;;;;;;;5057351;27;99357;-76
2023/06/15 06:25:53;;;;;;;13.18;4.70;;;;;;;;;;5055135;27;99887;-75
2023/06/15 06:28:20;;;;;;;13.13;4.20;;;;;;;;;;5078966;27;98298;-75
2023/06/15 06:30:46;;;;;;;8.35;4.47;;;;;;;;;;5082731;27;100060;-75
2023/06/15 06:33:13;;;;;;;11.27;4.82;;;;;;;;;;5073030;27;98694;-75
2023/06/15 06:35:39;;;;;;;8.05;4.30;;;;;;;;;;5073313;27;98501;-75
2023/06/15 06:38:06;;;;;;;12.35;4.13;;;;;;;;;;5074090;27;101263;-75
2023/06/15 06:40:32;;;;;;;10.75;4.18;;;;;;;;;;5080019;27;98251;-75
2023/06/15 06:42:58;;;;;;;16.10;4.32;;;;;;;;;;5092193;27;99467;-75
2023/06/15 06:45:25;;;;;;;5.68;4.30;;;;;;;;;;5092170;27;101241;-75
2023/06/15 06:47:55;;;;;;;8.60;4.23;;;;;;;;;;5093924;27;98205;-75
2023/06/15 06:50:22;;;;;;;6.38;3.95;;;;;;;;;;5097287;27;99709;-75
2023/06/15 06:52:48;;;;;;;10.13;3.70;;;;;;;;;;5092555;27;98365;-75
2023/06/15 06:55:15;;;;;;;7.82;3.92;;;;;;;;;;5091867;27;99505;-74
2023/06/15 06:57:41;;;;;;;7.15;4.15;;;;;;;;;;5083977;27;99813;-74
2023/06/15 07:00:10;;;;;;;11.93;4.53;;;;;;;;;;5086077;27;99706;-74
2023/06/15 07:02:37;;;;;;;13.27;4.30;;;;;;;;;;5088950;27;98522;-74
2023/06/15 07:05:03;;;;;;;9.25;4.38;;;;;;;;;;5081403;27;99324;-74
2023/06/15 07:07:30;;;;;;;4.15;3.55;;;;;;;;;;5074664;27;98728;-74
2023/06/15 07:09:56;;;;;;;8.48;3.92;;;;;;;;;;5090709;27;98472;-74
2023/06/15 07:12:23;;;;;;;7.35;4.35;;;;;;;;;;5089662;27;99951;-74
2023/06/15 07:14:49;;;;;;;4.10;3.70;;;;;;;;;;5090021;27;98484;-75
2023/06/15 07:17:16;;;;;;;8.52;4.38;;;;;;;;;;5093130;27;99135;-74
2023/06/15 07:19:42;;;;;;;5.10;4.10;;;;;;;;;;5077150;27;98017;-74
2023/06/15 07:22:09;;;;;;;6.13;3.90;;;;;;;;;;5071597;27;98790;-74
2023/06/15 07:24:36;;;;;;;6.28;4.40;;;;;;;;;;5072842;27;97892;-74
2023/06/15 07:27:03;;;;;;;5.20;3.88;;;;;;;;;;5073120;27;98251;-74
2023/06/15 07:29:29;;;;;;;10.43;4.38;;;;;;;;;;5072757;27;99437;-74
2023/06/15 07:31:55;;;;;;;10.98;4.55;;;;;;;;;;5088710;27;100061;-74
2023/06/15 07:34:23;;;;;;;14.50;4.20;;;;;;;;;;5096135;27;98260;-74
2023/06/15 07:36:50;;;;;;;8.00;4.28;;;;;;;;;;5093616;27;99879;-73
2023/06/15 07:39:16;;;;;;;14.23;4.65;;;;;;;;;;5093106;27;98194;-74
2023/06/15 07:41:43;;;;;;;11.23;4.40;;;;;;;;;;5091329;27;99465;-74
2023/06/15 07:44:12;;;;;;;10.73;4.68;;;;;;;;;;5091997;27;98140;-74
2023/06/15 07:46:39;;;;;;;10.05;4.65;;;;;;;;;;5083579;27;98033;-74
2023/06/15 07:49:07;;;;;;;15.38;4.50;;;;;;;;;;5071712;27;99224;-74
2023/06/15 07:51:36;;;;;;;11.73;4.47;;;;;;;;;;5071462;27;99359;-75
2023/06/15 07:54:16;;;;;;;9.50;4.20;;;;;;;;;;5072206;27;98176;-74
2023/06/15 07:56:45;;;;;;;7.65;4.35;;;;;;;;;;5074938;27;99419;-73
2023/06/15 07:59:11;;;;;;;17.40;4.80;;;;;;;;;;5085759;27;98185;-73
2023/06/15 08:01:38;;;;;;;11.02;3.88;;;;;;;;;;5082511;27;99361;-73
2023/06/15 08:04:04;;;;;;;8.70;3.53;;;;;;;;;;5083143;27;98978;-72
2023/06/15 08:06:31;;;;;;;12.00;3.10;;;;;;;;;;5079575;27;98248;-73
2023/06/15 08:08:57;;;;;;;4.78;3.40;;;;;;;;;;5071672;27;99676;-73
2023/06/15 08:11:24;;;;;;;6.57;3.03;;;;;;;;;;5070413;27;100011;-73
2023/06/15 08:13:50;;;;;;;11.02;3.55;;;;;;;;;;5072970;27;98292;-73
2023/06/15 08:16:17;;;;;;;8.07;3.65;;;;;;;;;;5074902;27;99349;-73
2023/06/15 08:18:43;;;;;;;10.30;3.67;;;;;;;;;;5084268;27;98183;-72
2023/06/15 08:21:10;;;;;;;9.07;3.42;;;;;;;;;;5079011;27;98467;-73
2023/06/15 08:23:36;;;;;;;5.22;3.50;;;;;;;;;;5081270;27;100237;-73
2023/06/15 08:26:02;;;;;;;5.45;3.63;;;;;;;;;;5091181;27;98323;-75
2023/06/15 08:28:29;;;;;;;16.13;4.20;;;;;;;;;;5090854;27;99578;-75
2023/06/15 08:31:06;;;;;;;10.40;4.03;;;;;;;;;;5084104;27;99739;-74
2023/06/15 08:33:33;;;;;;;9.43;3.58;;;;;;;;;;5070940;27;98307;-73
2023/06/15 08:36:01;;;;;;;17.80;3.97;;;;;;;;;;5071692;27;99652;-73
2023/06/15 08:38:27;;;;;;;12.55;4.90;;;;;;;;;;5073056;27;98974;-72
2023/06/15 08:40:54;;;;;;;13.73;3.47;;;;;;;;;;5070439;27;98759;-74
2023/06/15 08:43:21;;;;;;;13.35;4.50;;;;;;;;;;5071544;27;100137;-74
2023/06/15 08:45:48;;;;;;;6.38;4.55;;;;;;;;;;5071263;27;98828;-73
2023/06/15 08:48:16;;;;;;;18.65;4.15;;;;;;;;;;5073453;27;99542;-73
2023/06/15 08:50:44;;;;;;;8.05;3.65;;;;;;;;;;5080934;27;100103;-73
2023/06/15 08:53:13;;;;;;;6.70;3.88;;;;;;;;;;5089121;27;99486;-75
2023/06/15 08:55:40;;;;;;;6.65;3.90;;;;;;;;;;5092425;27;99803;-75
2023/06/15 08:58:07;;;;;;;8.52;4.15;;;;;;;;;;5090969;27;98122;-75
2023/06/15 09:00:36;;;;;;;15.35;4.43;;;;;;;;;;5094700;27;98300;-73
2023/06/15 09:03:04;;;;;;;8.55;3.47;;;;;;;;;;5084754;27;100016;-75
2023/06/15 09:05:30;;;;;;;14.00;3.70;;;;;;;;;;5076034;27;98347;-76
2023/06/15 09:07:58;;;;;;;7.72;3.47;;;;;;;;;;5090973;27;99319;-74
2023/06/15 09:10:25;;;;;;;9.27;4.05;;;;;;;;;;5092281;27;100076;-74
2023/06/15 09:12:55;;;;;;;12.90;3.92;;;;;;;;;;5090000;27;98232;-72
2023/06/15 09:15:22;;;;;;;10.30;3.40;;;;;;;;;;5089949;27;99923;-73
2023/06/15 09:17:52;;;;;;;8.48;3.70;;;;;;;;;;5084334;27;99048;-74
2023/06/15 09:20:20;;;;;;;4.85;3.60;;;;;;;;;;5076336;27;98195;-73
2023/06/15 09:22:47;;;;;;;12.35;3.85;;;;;;;;;;5093310;27;99316;-73
2023/06/15 09:25:20;;;;;;;5.55;3.50;;;;;;;;;;5088033;27;98393;-74
2023/06/15 09:27:56;;;;;;;7.32;3.83;;;;;;;;;;5079872;27;98530;-74
2023/06/15 09:30:42;;;;;;;4.28;3.50;;;;;;;;;;5087939;27;99341;-72
2023/06/15 09:33:13;;;;;;;10.50;3.85;;;;;;;;;;5081983;27;98777;-73
2023/06/15 09:35:58;;;;;;;9.77;3.57;;;;;;;;;;5090712;27;99266;-74
2023/06/15 09:38:25;;;;;;;3.42;3.13;;;;;;;;;;5085886;27;99869;-73
2023/06/15 09:40:52;;;;;;;6.47;3.20;;;;;;;;;;5087754;27;99163;-74
2023/06/15 09:43:19;;;;;;;6.65;3.28;;;;;;;;;;5085986;27;98385;-73
2023/06/15 09:45:50;;;;;;;8.07;3.22;;;;;;;;;;5092061;27;98960;-73
2023/06/15 09:48:16;;;;;;;7.90;2.67;;;;;;;;;;5094091;27;98516;-74
2023/06/15 09:50:43;;;;;;;7.88;3.25;;;;;;;;;;5087487;27;100059;-74
2023/06/15 09:53:11;;;;;;;5.68;2.88;;;;;;;;;;5090970;27;98221;-74
2023/06/15 09:55:43;;;;;;;9.15;2.58;;;;;;;;;;5076345;27;99614;-74
2023/06/15 09:58:10;;;;;;;4.38;2.42;;;;;;;;;;5086027;27;99551;-75
2023/06/15 10:00:37;;;;;;;5.10;2.83;;;;;;;;;;5090498;27;98214;-74
2023/06/15 10:03:03;;;;;;;6.88;2.88;;;;;;;;;;5093268;27;99570;-74
2023/06/15 10:05:31;;;;;;;5.05;2.88;;;;;;;;;;5094710;27;100039;-75
2023/06/15 10:08:01;;;;;;;3.33;2.83;;;;;;;;;;5090117;27;97981;-75
2023/06/15 10:10:29;;;;;;;9.90;3.00;;;;;;;;;;5075424;27;98953;-74
2023/06/15 10:12:57;;;;;;;8.70;2.83;;;;;;;;;;5094462;27;98220;-74
2023/06/15 10:15:24;;;;;;;11.52;2.95;;;;;;;;;;5081685;27;98546;-73
2023/06/15 10:17:52;;;;;;;11.75;2.78;;;;;;;;;;5078653;27;98955;-75
2023/06/15 10:20:22;;;;;;;5.68;3.08;;;;;;;;;;5077755;27;98869;-73
2023/06/15 10:22:56;;;;;;;7.05;3.25;;;;;;;;;;5075800;27;98722;-72
2023/06/15 10:25:23;;;;;;;4.03;2.75;;;;;;;;;;5088051;27;100179;-74
2023/06/15 10:27:49;;;;;;;6.38;3.22;;;;;;;;;;5089729;27;98196;-73
2023/06/15 10:30:21;;;;;;;5.13;2.72;;;;;;;;;;5090636;27;98898;-73
2023/06/15 10:33:11;;;;;;;5.47;3.15;;;;;;;;;;5073668;27;98307;-74
2023/06/15 10:35:55;;;;;;;7.05;3.55;;;;;;;;;;5088919;27;98586;-74
2023/06/15 10:38:28;;;;;;;8.88;3.30;;;;;;;;;;5092493;27;99200;-74
2023/06/15 10:40:54;;;;;;;5.85;3.28;;;;;;;;;;5093397;27;98427;-74
2023/06/15 10:43:24;;;;;;;8.85;3.15;;;;;;;;;;5094443;27;99595;-74
2023/06/15 10:45:52;;;;;;;10.95;3.80;;;;;;;;;;5089553;27;100396;-74
2023/06/15 10:48:22;;;;;;;8.07;3.00;;;;;;;;;;5081144;27;98157;-73
2023/06/15 10:50:51;;;;;;;3.95;2.85;;;;;;;;;;5076822;27;100851;-74
2023/06/15 10:53:22;;;;;;;4.43;3.03;;;;;;;;;;5079959;27;98207;-73
2023/06/15 10:55:51;;;;;;;5.35;3.20;;;;;;;;;;5093583;27;99283;-73
2023/06/15 10:58:18;;;;;;;3.90;3.28;;;;;;;;;;5092750;27;100284;-73
2023/06/15 11:00:44;;;;;;;4.53;3.13;;;;;;;;;;5094265;27;98232;-73
2023/06/15 11:03:24;;;;;;;10.20;3.13;;;;;;;;;;5093604;27;99576;-73
2023/06/15 11:06:21;;;;;;;4.03;3.22;;;;;;;;;;5081650;27;99954;-73
2023/06/15 11:08:49;;;;;;;8.38;2.90;;;;;;;;;;5067268;27;98358;-73
2023/06/15 11:11:17;;;;;;;9.40;3.10;;;;;;;;;;5081204;27;98574;-73
2023/06/15 11:14:16;;;;;;;5.18;2.50;;;;;;;;;;5090958;27;98971;-73
2023/06/15 11:16:42;;;;;;;5.75;2.33;;;;;;;;;;5033961;27;99831;-74
2023/06/15 11:19:12;;;;;;;8.60;2.60;;;;;;;;;;5083219;27;99951;-73
2023/06/15 11:21:48;;;;;;;2.70;2.50;;;;;;;;;;5077913;27;99251;-74
2023/06/15 11:24:15;;;;;;;9.02;4.07;;;;;;;;;;5076977;27;99557;-73
2023/06/15 11:26:43;;;;;;;5.05;2.58;;;;;;;;;;5073122;27;99892;-75
2023/06/15 11:29:12;;;;;;;11.82;3.35;;;;;;;;;;5078502;27;98191;-74
2023/06/15 11:31:42;;;;;;;5.32;2.47;;;;;;;;;;5081946;27;99448;-74
2023/06/15 11:34:10;;;;;;;5.22;2.38;;;;;;;;;;5084237;27;99754;-74
2023/06/15 11:36:37;;;;;;;3.78;2.72;;;;;;;;;;5093428;27;98225;-73
2023/06/15 11:39:04;;;;;;;2.50;2.30;;;;;;;;;;5072047;27;100009;-73
2023/06/15 11:41:31;;;;;;;4.18;2.33;;;;;;;;;;5086807;27;99787;-73
2023/06/15 11:43:57;;;;;;;4.28;2.28;;;;;;;;;;5092698;27;98408;-73
2023/06/15 11:46:25;;;;;;;5.93;2.40;;;;;;;;;;5084024;27;99250;-74
2023/06/15 11:48:55;;;;;;;7.78;2.38;;;;;;;;;;5080736;27;98670;-75
2023/06/15 11:51:22;;;;;;;5.68;2.63;;;;;;;;;;5072951;27;98676;-74
2023/06/15 11:53:51;;;;;;;5.22;2.13;;;;;;;;;;5078431;27;98769;-76
2023/06/15 11:56:17;;;;;;;2.97;2.60;;;;;;;;;;5090697;27;98173;-74
2023/06/15 11:58:45;;;;;;;3.00;2.35;;;;;;;;;;5102770;27;99204;-75
2023/06/15 12:01:12;;;;;;;5.28;2.60;;;;;;;;;;5085485;27;98283;-74
2023/06/15 12:03:43;;;;;;;4.78;2.55;;;;;;;;;;5061762;27;101016;-73
2023/06/15 12:06:29;;;;;;;3.28;2.75;;;;;;;;;;5091212;27;100087;-75
2023/06/15 12:08:56;;;;;;;7.05;2.72;;;;;;;;;;5083581;27;98896;-74
2023/06/15 12:11:23;;;;;;;7.82;2.85;;;;;;;;;;5079286;27;99430;-73
2023/06/15 12:13:50;;;;;;;6.57;2.38;;;;;;;;;;5079149;27;99984;-73
2023/06/15 12:16:17;;;;;;;5.95;2.90;;;;;;;;;;5084647;27;99733;-74
2023/06/15 12:18:43;;;;;;;3.28;2.58;;;;;;;;;;5081277;27;98666;-75
2023/06/15 12:21:10;;;;;;;2.88;2.67;;;;;;;;;;5091490;27;98222;-72
2023/06/15 12:23:37;;;;;;;5.10;2.75;;;;;;;;;;5085633;27;98607;-73
2023/06/15 12:26:03;;;;;;;6.30;2.78;;;;;;;;;;5080868;27;99520;-73
2023/06/15 12:28:33;;;;;;;8.15;3.00;;;;;;;;;;5080721;27;98186;-75
2023/06/15 12:31:04;;;;;;;13.43;3.15;;;;;;;;;;5070745;27;99274;-74
2023/06/15 12:33:42;;;;;;;4.50;2.73;;;;;;;;;;5077866;27;100073;-75
2023/06/15 12:36:14;;;;;;;2.42;2.13;;;;;;;;;;5089436;27;98850;-73
2023/06/15 12:38:42;;;;;;;5.72;2.40;;;;;;;;;;5090613;27;100431;-74
2023/06/15 12:41:13;;;;;;;2.83;2.58;;;;;;;;;;5090762;27;100011;-73
2023/06/15 12:43:39;;;;;;;2.95;2.70;;;;;;;;;;5086807;27;100090;-74
2023/06/15 12:46:06;;;;;;;3.35;2.45;;;;;;;;;;5091764;27;99995;-73
2023/06/15 12:48:33;;;;;;;2.65;2.42;;;;;;;;;;5092302;27;98192;-73
2023/06/15 12:50:59;;;;;;;3.85;2.75;;;;;;;;;;5091449;27;99648;-73
2023/06/15 12:53:26;;;;;;;7.53;2.60;;;;;;;;;;5091703;27;99049;-73
2023/06/15 12:55:52;;;;;;;8.43;3.25;;;;;;;;;;5091397;27;98253;-73
2023/06/15 12:58:18;;;;;;;5.38;2.38;;;;;;;;;;5089907;27;98440;-75
2023/06/15 13:00:45;;;;;;;5.53;3.00;;;;;;;;;;5092399;27;100025;-73
2023/06/15 13:03:11;;;;;;;3.65;2.70;;;;;;;;;;5095105;27;98178;-73
2023/06/15 13:05:40;;;;;;;3.75;2.50;;;;;;;;;;5089425;27;100285;-73
2023/06/15 13:08:08;;;;;;;11.15;2.88;;;;;;;;;;5077131;27;99953;-73
2023/06/15 13:10:34;;;;;;;2.42;2.22;;;;;;;;;;5070654;27;98642;-73
2023/06/15 13:13:01;;;;;;;6.65;2.80;;;;;;;;;;5069297;27;99097;-73
2023/06/15 13:15:28;;;;;;;2.85;2.63;;;;;;;;;;5071371;27;99172;-73
2023/06/15 13:17:55;;;;;;;3.78;3.05;;;;;;;;;;5070467;27;98772;-74
2023/06/15 13:20:21;;;;;;;3.55;2.55;;;;;;;;;;5086141;27;98989;-74
2023/06/15 13:22:49;;;;;;;6.25;2.50;;;;;;;;;;5088062;27;98192;-73
2023/06/15 13:25:16;;;;;;;2.90;2.42;;;;;;;;;;5093363;27;98592;-74
2023/06/15 13:27:42;;;;;;;4.82;2.30;;;;;;;;;;5090590;27;98363;-74
2023/06/15 13:30:09;;;;;;;20.50;3.20;;;;;;;;;;5091294;27;99315;-74
2023/06/15 13:32:37;;;;;;;6.93;3.22;;;;;;;;;;5091071;27;100219;-74
2023/06/15 13:35:07;;;;;;;3.38;2.53;;;;;;;;;;5090430;27;98257;-74
2023/06/15 13:37:34;;;;;;;3.05;2.58;;;;;;;;;;5090607;27;98471;-75
2023/06/15 13:40:05;;;;;;;5.03;2.63;;;;;;;;;;5090272;27;99999;-74
2023/06/15 13:42:34;;;;;;;3.53;2.72;;;;;;;;;;5082840;27;98321;-74
2023/06/15 13:45:05;;;;;;;7.07;2.35;;;;;;;;;;5090724;27;98475;-74
2023/06/15 13:47:32;;;;;;;7.97;2.63;;;;;;;;;;5093945;27;99917;-75
2023/06/15 13:49:59;;;;;;;2.78;2.58;;;;;;;;;;5091686;27;99216;-74
2023/06/15 13:52:26;;;;;;;4.85;2.55;;;;;;;;;;5090711;27;98982;-75
2023/06/15 13:54:52;;;;;;;6.80;2.70;;;;;;;;;;5089938;27;98185;-74
2023/06/15 13:57:20;;;;;;;5.28;3.00;;;;;;;;;;5090623;27;98469;-74
2023/06/15 13:59:46;;;;;;;7.90;2.40;;;;;;;;;;5089848;27;99138;-72
2023/06/15 14:02:13;;;;;;;4.55;3.03;;;;;;;;;;5089076;27;98366;-75
2023/06/15 14:04:39;;;;;;;3.92;2.33;;;;;;;;;;5090856;27;98421;-73
2023/06/15 14:07:06;;;;;;;5.43;2.55;;;;;;;;;;5089611;27;99051;-72
2023/06/15 14:09:32;;;;;;;4.18;2.80;;;;;;;;;;5094074;27;98446;-74
2023/06/15 14:11:59;;;;;;;8.43;2.90;;;;;;;;;;5093837;27;100109;-73
2023/06/15 14:14:26;;;;;;;7.43;2.50;;;;;;;;;;5094330;27;98208;-73
2023/06/15 14:16:54;;;;;;;6.68;2.70;;;;;;;;;;5091897;27;98413;-74
2023/06/15 14:19:21;;;;;;;6.40;2.70;;;;;;;;;;5094306;27;99990;-74
2023/06/15 14:21:48;;;;;;;7.82;2.80;;;;;;;;;;5094541;27;98201;-74
2023/06/15 14:24:15;;;;;;;7.47;2.60;;;;;;;;;;5092510;27;98433;-73
2023/06/15 14:26:41;;;;;;;4.30;2.33;;;;;;;;;;5094333;27;100097;-73
2023/06/15 14:29:12;;;;;;;4.97;2.60;;;;;;;;;;5094672;27;98963;-73
2023/06/15 14:31:45;;;;;;;5.55;2.80;;;;;;;;;;5093249;27;98958;-74
2023/06/15 14:34:16;;;;;;;10.23;3.20;;;;;;;;;;5091869;27;98230;-74
2023/06/15 14:36:42;;;;;;;8.95;3.17;;;;;;;;;;5093949;27;99861;-75
2023/06/15 14:39:10;;;;;;;5.22;2.63;;;;;;;;;;5063604;27;98844;-74
2023/06/15 14:41:37;;;;;;;10.35;3.03;;;;;;;;;;5073859;27;98311;-74
2023/06/15 14:44:06;;;;;;;6.20;3.15;;;;;;;;;;5072847;27;99038;-74